Terminal Aerodrome Forecast
Issued by NWS

Current Version | Previous Version | Graphics & Text | Print | Product List | Glossary On
Versions: 1 2 3 4 5 6 7 8 9 10 11 12 13 14 15 16 17
000
FTUS41 KPBZ 232300
TAFMGW
TAF
KMGW 232323Z 2400/2424 01008KT P6SM OVC060
     FM240100 36006KT 2SM -SN OVC020
      TEMPO 2401/2405 1SM -SN OVC006
     FM240600 01003KT P6SM OVC015
     FM241500 04005KT P6SM BKN035=

USA.gov is the U.S. government's official web portal to all federal, state and local government web resources and services.